createdAt,value
2016-08-24T00:00:10.649Z,1015.73
2016-08-24T00:01:10.638Z,1015.71
2016-08-24T00:02:10.632Z,1015.75
2016-08-24T00:03:10.626Z,1015.7
2016-08-24T00:04:10.616Z,1015.73
2016-08-24T00:05:10.613Z,1015.72
2016-08-24T00:06:10.603Z,1015.69
2016-08-24T00:07:10.595Z,1015.7
2016-08-24T00:08:10.589Z,1015.72
2016-08-24T00:09:10.581Z,1015.71
2016-08-24T00:10:10.572Z,1015.67
2016-08-24T00:11:10.568Z,1015.7
2016-08-24T00:12:10.556Z,1015.7
2016-08-24T00:13:10.548Z,1015.66
2016-08-24T00:14:10.544Z,1015.64
2016-08-24T00:15:10.538Z,1015.65
2016-08-24T00:16:10.526Z,1015.65
2016-08-24T00:17:10.520Z,1015.63
2016-08-24T00:18:10.512Z,1015.62
2016-08-24T00:19:10.504Z,1015.61
2016-08-24T00:20:10.499Z,1015.66
2016-08-24T00:21:10.488Z,1015.61
2016-08-24T00:22:10.484Z,1015.62
2016-08-24T00:23:10.474Z,1015.64
2016-08-24T00:24:10.468Z,1015.62
2016-08-24T00:25:10.459Z,1015.61
2016-08-24T00:26:10.458Z,1015.61
2016-08-24T00:27:10.439Z,1015.6
2016-08-24T00:28:10.487Z,1015.6
2016-08-24T00:29:10.426Z,1015.61
2016-08-24T00:30:10.420Z,1015.58
2016-08-24T00:31:10.411Z,1015.57
2016-08-24T00:32:10.405Z,1015.57
2016-08-24T00:33:10.396Z,1015.58
2016-08-24T00:34:10.388Z,1015.56
2016-08-24T00:35:10.385Z,1015.58
2016-08-24T00:36:10.372Z,1015.59
2016-08-24T00:37:10.370Z,1015.55
2016-08-24T00:38:10.357Z,1015.54
2016-08-24T00:39:10.399Z,1015.57
2016-08-24T00:40:10.341Z,1015.58
2016-08-24T00:41:10.333Z,1015.56
2016-08-24T00:42:10.327Z,1015.51
2016-08-24T00:43:10.318Z,1015.53
2016-08-24T00:44:10.312Z,1015.51
2016-08-24T00:45:10.303Z,1015.53
2016-08-24T00:46:10.294Z,1015.55
2016-08-24T00:47:10.288Z,1015.57
2016-08-24T00:48:10.280Z,1015.59
2016-08-24T00:49:10.271Z,1015.61
2016-08-24T00:50:10.263Z,1015.6
2016-08-24T00:51:10.256Z,1015.6
2016-08-24T00:52:10.248Z,1015.59
2016-08-24T00:53:10.240Z,1015.62
2016-08-24T00:54:10.255Z,1015.62
2016-08-24T00:55:10.225Z,1015.61
2016-08-24T00:56:10.217Z,1015.61
2016-08-24T00:57:10.209Z,1015.63
2016-08-24T00:58:10.202Z,1015.58
2016-08-24T00:59:10.196Z,1015.57
2016-08-24T01:00:10.182Z,1015.58
2016-08-24T01:01:10.200Z,1015.57
2016-08-24T01:02:10.170Z,1015.56
2016-08-24T01:03:10.162Z,1015.56
2016-08-24T01:04:10.153Z,1015.54
2016-08-24T01:05:10.144Z,1015.53
2016-08-24T01:06:10.138Z,1015.54
2016-08-24T01:07:10.139Z,1015.54
2016-08-24T01:08:10.121Z,1015.55
2016-08-24T01:09:10.113Z,1015.53
2016-08-24T01:10:10.105Z,1015.52
2016-08-24T01:11:10.097Z,1015.5
2016-08-24T01:12:10.092Z,1015.49
2016-08-24T01:13:10.084Z,1015.47
2016-08-24T01:14:10.075Z,1015.5
2016-08-24T01:15:10.068Z,1015.46
2016-08-24T01:16:10.060Z,1015.49
2016-08-24T01:17:10.055Z,1015.47
2016-08-24T01:18:10.044Z,1015.51
2016-08-24T01:19:10.036Z,1015.51
2016-08-24T01:20:10.029Z,1015.46
2016-08-24T01:21:10.021Z,1015.47
2016-08-24T01:22:10.009Z,1015.46
2016-08-24T01:23:10.004Z,1015.5
2016-08-24T01:24:09.996Z,1015.51
2016-08-24T01:25:09.986Z,1015.48
2016-08-24T01:26:09.980Z,1015.47
2016-08-24T01:27:09.970Z,1015.49
2016-08-24T01:28:09.963Z,1015.48
2016-08-24T01:29:09.955Z,1015.47
2016-08-24T01:30:09.948Z,1015.47
2016-08-24T01:31:09.940Z,1015.44
2016-08-24T01:32:09.932Z,1015.49
2016-08-24T01:33:09.922Z,1015.42
2016-08-24T01:34:09.915Z,1015.42
2016-08-24T01:35:09.907Z,1015.43
2016-08-24T01:36:09.898Z,1015.43
2016-08-24T01:37:09.890Z,1015.45
2016-08-24T01:38:09.882Z,1015.4
2016-08-24T01:39:09.874Z,1015.47
2016-08-24T01:40:09.867Z,1015.44
2016-08-24T01:41:09.858Z,1015.45
2016-08-24T01:42:09.849Z,1015.43
2016-08-24T01:43:09.843Z,1015.44
2016-08-24T01:44:09.833Z,1015.43
2016-08-24T01:45:09.825Z,1015.43
2016-08-24T01:46:09.818Z,1015.42
2016-08-24T01:47:09.808Z,1015.44
2016-08-24T01:48:09.802Z,1015.42
2016-08-24T01:49:09.795Z,1015.4
2016-08-24T01:50:09.786Z,1015.45
2016-08-24T01:51:09.776Z,1015.41
2016-08-24T01:52:09.770Z,1015.42
2016-08-24T01:53:09.762Z,1015.42
2016-08-24T01:54:09.959Z,1015.37
2016-08-24T01:55:09.745Z,1015.36
2016-08-24T01:56:09.736Z,1015.4
2016-08-24T01:57:09.728Z,1015.43
2016-08-24T01:58:09.721Z,1015.37
2016-08-24T01:59:09.712Z,1015.36
2016-08-24T02:00:09.705Z,1015.38
2016-08-24T02:01:09.695Z,1015.36
2016-08-24T02:02:09.686Z,1015.39
2016-08-24T02:03:09.688Z,1015.36
2016-08-24T02:04:09.670Z,1015.36
2016-08-24T02:05:09.662Z,1015.37
2016-08-24T02:06:09.653Z,1015.35
2016-08-24T02:07:09.645Z,1015.38
2016-08-24T02:08:09.638Z,1015.33
2016-08-24T02:09:09.629Z,1015.32
2016-08-24T02:10:09.622Z,1015.33
2016-08-24T02:11:09.613Z,1015.35
2016-08-24T02:12:09.606Z,1015.31
2016-08-24T02:13:09.600Z,1015.36
2016-08-24T02:14:09.588Z,1015.28
2016-08-24T02:15:09.579Z,1015.29
2016-08-24T02:16:09.571Z,1015.29
2016-08-24T02:17:09.562Z,1015.27
2016-08-24T02:18:09.555Z,1015.28
2016-08-24T02:19:09.545Z,1015.24
2016-08-24T02:20:09.538Z,1015.31
2016-08-24T02:21:09.530Z,1015.23
2016-08-24T02:22:09.521Z,1015.23
2016-08-24T02:23:09.514Z,1015.24
2016-08-24T02:24:09.504Z,1015.23
2016-08-24T02:25:09.494Z,1015.24
2016-08-24T02:26:09.487Z,1015.24
2016-08-24T02:27:09.479Z,1015.26
2016-08-24T02:28:09.471Z,1015.25
2016-08-24T02:29:09.462Z,1015.21
2016-08-24T02:30:09.455Z,1015.21
2016-08-24T02:31:09.445Z,1015.19
2016-08-24T02:32:09.436Z,1015.18
2016-08-24T02:33:09.431Z,1015.13
2016-08-24T02:34:09.421Z,1015.15
2016-08-24T02:35:09.411Z,1015.13
2016-08-24T02:36:09.404Z,1015.13
2016-08-24T02:37:09.396Z,1015.15
2016-08-24T02:38:09.388Z,1015.11
2016-08-24T02:39:09.379Z,1015.1
2016-08-24T02:40:09.370Z,1015.13
2016-08-24T02:41:09.361Z,1015.1
2016-08-24T02:42:09.352Z,1015.12
2016-08-24T02:43:09.345Z,1015.07
2016-08-24T02:44:09.336Z,1015.09
2016-08-24T02:45:09.329Z,1015.07
2016-08-24T02:46:09.318Z,1015.07
2016-08-24T02:47:09.313Z,1015.05
2016-08-24T02:48:09.302Z,1015.03
2016-08-24T02:49:09.292Z,1015.1
2016-08-24T02:50:09.287Z,1015.09
2016-08-24T02:51:09.276Z,1015.06
2016-08-24T02:52:09.268Z,1015.01
2016-08-24T02:53:09.261Z,1015.05
2016-08-24T02:54:09.252Z,1015.04
2016-08-24T02:55:09.246Z,1015.06
2016-08-24T02:56:09.235Z,1015.04
2016-08-24T02:57:09.227Z,1014.97
2016-08-24T02:58:09.219Z,1015
2016-08-24T02:59:09.209Z,1015
2016-08-24T03:00:09.201Z,1014.95
2016-08-24T03:01:09.193Z,1014.94
2016-08-24T03:02:09.234Z,1014.93
2016-08-24T03:03:09.178Z,1014.92
2016-08-24T03:04:09.164Z,1014.9
2016-08-24T03:05:09.158Z,1014.9
2016-08-24T03:06:09.151Z,1014.88
2016-08-24T03:07:09.150Z,1014.88
2016-08-24T03:08:09.144Z,1014.87
2016-08-24T03:09:09.126Z,1014.86
2016-08-24T03:10:09.117Z,1014.88
2016-08-24T03:11:09.112Z,1014.88
2016-08-24T03:12:09.097Z,1014.82
2016-08-24T03:13:09.091Z,1014.82
2016-08-24T03:14:09.083Z,1014.82
2016-08-24T03:15:09.076Z,1014.81
2016-08-24T03:16:09.062Z,1014.85
2016-08-24T03:17:09.055Z,1014.85
2016-08-24T03:18:09.050Z,1014.86
2016-08-24T03:19:09.037Z,1014.87
2016-08-24T03:20:09.029Z,1014.88
2016-08-24T03:21:09.019Z,1014.86
2016-08-24T03:22:09.009Z,1014.88
2016-08-24T03:23:09.001Z,1014.86
2016-08-24T03:24:08.993Z,1014.86
2016-08-24T03:25:08.982Z,1014.86
2016-08-24T03:26:08.976Z,1014.82
2016-08-24T03:27:08.967Z,1014.81
2016-08-24T03:28:08.957Z,1014.81
2016-08-24T03:29:08.952Z,1014.79
2016-08-24T03:30:08.941Z,1014.8
2016-08-24T03:31:08.932Z,1014.82
2016-08-24T03:32:08.923Z,1014.79
2016-08-24T03:33:08.915Z,1014.84
2016-08-24T03:34:08.906Z,1014.81
2016-08-24T03:35:08.897Z,1014.88
2016-08-24T03:36:08.889Z,1014.83
2016-08-24T03:37:08.878Z,1014.83
2016-08-24T03:38:08.870Z,1014.84
2016-08-24T03:39:08.862Z,1014.87
2016-08-24T03:40:08.853Z,1014.87
2016-08-24T03:41:08.849Z,1014.85
2016-08-24T03:42:08.836Z,1014.87
2016-08-24T03:43:08.825Z,1014.93
2016-08-24T03:44:08.821Z,1014.87
2016-08-24T03:45:08.808Z,1014.89
2016-08-24T03:46:08.798Z,1014.9
2016-08-24T03:47:08.790Z,1014.91
2016-08-24T03:48:08.781Z,1014.87
2016-08-24T03:49:08.773Z,1014.92
2016-08-24T03:50:08.765Z,1014.91
2016-08-24T03:51:08.756Z,1014.93
2016-08-24T03:52:08.744Z,1014.89
2016-08-24T03:53:08.738Z,1014.92
2016-08-24T03:54:08.931Z,1014.93
2016-08-24T03:55:08.717Z,1014.9
2016-08-24T03:56:08.710Z,1014.91
2016-08-24T03:57:08.702Z,1014.9
2016-08-24T03:58:08.693Z,1014.9
2016-08-24T03:59:08.684Z,1014.9
2016-08-24T04:00:08.676Z,1014.89
2016-08-24T04:01:08.674Z,1014.95
2016-08-24T04:02:08.657Z,1014.91
2016-08-24T04:03:08.650Z,1014.95
2016-08-24T04:04:08.639Z,1014.94
2016-08-24T04:05:08.630Z,1014.96
2016-08-24T04:06:08.621Z,1014.94
2016-08-24T04:07:08.612Z,1014.95
2016-08-24T04:08:08.604Z,1014.96
2016-08-24T04:09:08.598Z,1014.92
2016-08-24T04:10:08.587Z,1014.94
2016-08-24T04:11:08.578Z,1014.92
2016-08-24T04:12:08.567Z,1014.93
2016-08-24T04:13:08.558Z,1014.92
2016-08-24T04:14:08.549Z,1014.91
2016-08-24T04:15:08.541Z,1014.94
2016-08-24T04:16:08.531Z,1014.93
2016-08-24T04:17:08.520Z,1014.92
2016-08-24T04:18:08.514Z,1014.91
2016-08-24T04:19:08.504Z,1014.93
2016-08-24T04:20:08.496Z,1014.95
2016-08-24T04:21:08.485Z,1014.94
2016-08-24T04:22:08.476Z,1014.97
2016-08-24T04:23:08.467Z,1014.97
2016-08-24T04:24:08.459Z,1014.97
2016-08-24T04:25:08.450Z,1014.95
2016-08-24T04:26:08.443Z,1014.93
2016-08-24T04:27:08.432Z,1014.9
2016-08-24T04:28:08.423Z,1014.9
2016-08-24T04:29:08.414Z,1014.91
2016-08-24T04:30:08.406Z,1014.91
2016-08-24T04:31:08.396Z,1014.94
2016-08-24T04:32:08.393Z,1014.94
2016-08-24T04:33:08.377Z,1014.95
2016-08-24T04:34:08.369Z,1014.93
2016-08-24T04:35:08.358Z,1014.95
2016-08-24T04:36:08.351Z,1014.92
2016-08-24T04:37:08.342Z,1014.94
2016-08-24T04:38:08.334Z,1015
2016-08-24T04:39:08.321Z,1015.02
2016-08-24T04:40:08.315Z,1015.02
2016-08-24T04:41:08.306Z,1015
2016-08-24T04:42:08.298Z,1015.01
2016-08-24T04:43:08.289Z,1015.01
2016-08-24T04:44:08.555Z,1015
2016-08-24T04:45:08.272Z,1015.02
2016-08-24T04:46:08.260Z,1015.04
2016-08-24T04:47:08.250Z,1015.01
2016-08-24T04:48:08.244Z,1015.07
2016-08-24T04:49:08.232Z,1015.02
2016-08-24T04:50:08.224Z,1015.05
2016-08-24T04:51:08.216Z,1015.01
2016-08-24T04:52:08.207Z,1015.02
2016-08-24T04:53:08.196Z,1015.03
2016-08-24T04:54:08.186Z,1015.03
2016-08-24T04:55:08.178Z,1015.01
2016-08-24T04:56:08.170Z,1015.04
2016-08-24T04:57:08.158Z,1015.04
2016-08-24T04:58:08.150Z,1015.06
2016-08-24T04:59:08.141Z,1015.05
2016-08-24T05:00:08.134Z,1015.05
2016-08-24T05:01:08.121Z,1015.07
2016-08-24T05:02:08.114Z,1015.08
2016-08-24T05:03:08.104Z,1015.09
2016-08-24T05:04:08.095Z,1015.11
2016-08-24T05:05:08.085Z,1015.08
2016-08-24T05:06:08.077Z,1015.07
2016-08-24T05:07:08.070Z,1015.1
2016-08-24T05:08:08.059Z,1015.09
2016-08-24T05:09:08.050Z,1015.07
2016-08-24T05:10:08.042Z,1015.09
2016-08-24T05:11:08.032Z,1015.12
2016-08-24T05:12:08.022Z,1015.1
2016-08-24T05:13:08.014Z,1015.17
2016-08-24T05:14:08.004Z,1015.13
2016-08-24T05:15:07.996Z,1015.12
2016-08-24T05:16:07.989Z,1015.17
2016-08-24T05:17:07.977Z,1015.14
2016-08-24T05:18:07.969Z,1015.16
2016-08-24T05:19:07.962Z,1015.19
2016-08-24T05:20:07.951Z,1015.16
2016-08-24T05:21:07.944Z,1015.16
2016-08-24T05:22:07.933Z,1015.21
2016-08-24T05:23:07.923Z,1015.18
2016-08-24T05:24:07.915Z,1015.18
2016-08-24T05:25:07.908Z,1015.21
2016-08-24T05:26:07.897Z,1015.18
2016-08-24T05:27:07.888Z,1015.15
2016-08-24T05:28:07.879Z,1015.2
2016-08-24T05:29:07.869Z,1015.17
2016-08-24T05:30:07.862Z,1015.18
2016-08-24T05:31:07.854Z,1015.19
2016-08-24T05:32:07.844Z,1015.18
2016-08-24T05:33:07.834Z,1015.2
2016-08-24T05:34:07.826Z,1015.2
2016-08-24T05:35:07.817Z,1015.13
2016-08-24T05:36:07.808Z,1015.16
2016-08-24T05:37:07.801Z,1015.18
2016-08-24T05:38:07.790Z,1015.17
2016-08-24T05:39:07.783Z,1015.17
2016-08-24T05:40:07.791Z,1015.16
2016-08-24T05:41:07.771Z,1015.15
2016-08-24T05:42:07.757Z,1015.14
2016-08-24T05:43:07.746Z,1015.15
2016-08-24T05:44:07.738Z,1015.15
2016-08-24T05:45:07.728Z,1015.13
2016-08-24T05:46:07.720Z,1015.14
2016-08-24T05:47:07.712Z,1015.07
2016-08-24T05:48:07.705Z,1015.07
2016-08-24T05:49:07.693Z,1015.11
2016-08-24T05:50:07.687Z,1015.09
2016-08-24T05:51:07.679Z,1015.09
2016-08-24T05:52:07.668Z,1015.09
2016-08-24T05:53:07.659Z,1015.08
2016-08-24T05:54:07.853Z,1015.07
2016-08-24T05:55:07.644Z,1015.12
2016-08-24T05:56:07.633Z,1015.13
2016-08-24T05:57:07.628Z,1015.12
2016-08-24T05:58:07.616Z,1015.1
2016-08-24T05:59:07.608Z,1015.09
2016-08-24T06:00:07.599Z,1015.11
2016-08-24T06:01:07.597Z,1015.14
2016-08-24T06:02:07.585Z,1015.15
2016-08-24T06:03:07.576Z,1015.16
2016-08-24T06:04:07.567Z,1015.17
2016-08-24T06:05:07.559Z,1015.16
2016-08-24T06:06:07.550Z,1015.21
2016-08-24T06:07:07.542Z,1015.16
2016-08-24T06:08:07.532Z,1015.2
2016-08-24T06:09:07.524Z,1015.2
2016-08-24T06:10:07.516Z,1015.18
2016-08-24T06:11:07.508Z,1015.23
2016-08-24T06:12:07.498Z,1015.24
2016-08-24T06:13:07.491Z,1015.2
2016-08-24T06:14:07.484Z,1015.23
2016-08-24T06:15:07.476Z,1015.25
2016-08-24T06:16:07.467Z,1015.23
2016-08-24T06:17:07.459Z,1015.23
2016-08-24T06:18:07.450Z,1015.28
2016-08-24T06:19:07.441Z,1015.3
2016-08-24T06:20:07.435Z,1015.31
2016-08-24T06:21:07.425Z,1015.31
2016-08-24T06:22:07.418Z,1015.31
2016-08-24T06:23:07.410Z,1015.33
2016-08-24T06:24:07.402Z,1015.29
2016-08-24T06:25:07.393Z,1015.33
2016-08-24T06:26:07.385Z,1015.31
2016-08-24T06:27:07.381Z,1015.31
2016-08-24T06:28:07.371Z,1015.3
2016-08-24T06:29:07.360Z,1015.32
2016-08-24T06:30:07.356Z,1015.31
2016-08-24T06:31:07.345Z,1015.3
2016-08-24T06:32:07.337Z,1015.3
2016-08-24T06:33:07.328Z,1015.28
2016-08-24T06:34:07.322Z,1015.26
2016-08-24T06:35:07.314Z,1015.22
2016-08-24T06:36:07.305Z,1015.26
2016-08-24T06:37:07.299Z,1015.25
2016-08-24T06:38:07.290Z,1015.25
2016-08-24T06:39:07.282Z,1015.26
2016-08-24T06:40:07.277Z,1015.2
2016-08-24T06:41:07.267Z,1015.21
2016-08-24T06:42:07.258Z,1015.21
2016-08-24T06:43:07.251Z,1015.19
2016-08-24T06:44:07.243Z,1015.22
2016-08-24T06:45:07.236Z,1015.18
2016-08-24T06:46:07.228Z,1015.19
2016-08-24T06:47:07.220Z,1015.19
2016-08-24T06:48:07.214Z,1015.17
2016-08-24T06:49:07.205Z,1015.19
2016-08-24T06:50:07.199Z,1015.17
2016-08-24T06:51:07.191Z,1015.21
2016-08-24T06:52:07.185Z,1015.18
2016-08-24T06:53:07.177Z,1015.19
2016-08-24T06:54:07.167Z,1015.2
2016-08-24T06:55:07.159Z,1015.19
2016-08-24T06:56:07.153Z,1015.17
2016-08-24T06:57:07.146Z,1015.22
2016-08-24T06:58:07.138Z,1015.19
2016-08-24T06:59:07.131Z,1015.2
2016-08-24T07:00:07.124Z,1015.18
2016-08-24T07:01:07.117Z,1015.23
2016-08-24T07:02:07.108Z,1015.18
2016-08-24T07:03:07.105Z,1015.19
2016-08-24T07:04:07.095Z,1015.18
2016-08-24T07:05:07.090Z,1015.19
2016-08-24T07:06:07.083Z,1015.21
2016-08-24T07:07:07.078Z,1015.23
2016-08-24T07:08:07.066Z,1015.23
2016-08-24T07:09:07.058Z,1015.19
2016-08-24T07:10:07.050Z,1015.22
2016-08-24T07:11:07.044Z,1015.18
2016-08-24T07:12:07.036Z,1015.19
2016-08-24T07:13:07.029Z,1015.25
2016-08-24T07:14:07.023Z,1015.23
2016-08-24T07:15:07.019Z,1015.22
2016-08-24T07:16:07.007Z,1015.22
2016-08-24T07:17:07.001Z,1015.18
2016-08-24T07:18:06.994Z,1015.19
2016-08-24T07:19:06.987Z,1015.16
2016-08-24T07:20:06.979Z,1015.19
2016-08-24T07:21:06.974Z,1015.16
2016-08-24T07:22:06.966Z,1015.17
2016-08-24T07:23:06.958Z,1015.17
2016-08-24T07:24:06.951Z,1015.17
2016-08-24T07:25:06.947Z,1015.18
2016-08-24T07:26:06.939Z,1015.23
2016-08-24T07:27:06.931Z,1015.21
2016-08-24T07:28:06.925Z,1015.2
2016-08-24T07:29:06.917Z,1015.21
2016-08-24T07:30:06.911Z,1015.19
2016-08-24T07:31:06.905Z,1015.17
2016-08-24T07:32:06.898Z,1015.15
2016-08-24T07:33:06.889Z,1015.14
2016-08-24T07:34:06.884Z,1015.13
2016-08-24T07:35:06.878Z,1015.1
2016-08-24T07:36:06.873Z,1015.09
2016-08-24T07:37:06.869Z,1015.09
2016-08-24T07:38:06.857Z,1015.08
2016-08-24T07:39:06.851Z,1015.11
2016-08-24T07:40:06.845Z,1015.07
2016-08-24T07:41:06.837Z,1015.08
2016-08-24T07:42:06.832Z,1015.06
2016-08-24T07:43:06.825Z,1015.09
2016-08-24T07:44:06.819Z,1015.09
2016-08-24T07:45:06.811Z,1015.04
2016-08-24T07:46:06.805Z,1015.06
2016-08-24T07:47:06.798Z,1015.05
2016-08-24T07:48:06.793Z,1015.05
2016-08-24T07:49:06.784Z,1015.07
2016-08-24T07:50:06.779Z,1015.07
2016-08-24T07:51:06.772Z,1015.07
2016-08-24T07:52:06.768Z,1015.03
2016-08-24T07:53:06.760Z,1015.05
2016-08-24T07:54:06.955Z,1015.08
2016-08-24T07:55:06.747Z,1015.08
2016-08-24T07:56:06.742Z,1015.06
2016-08-24T07:57:06.737Z,1015.05
2016-08-24T07:58:06.729Z,1015.09
2016-08-24T07:59:06.724Z,1015.05
2016-08-24T08:00:06.714Z,1015.06
2016-08-24T08:01:06.711Z,1015.04
2016-08-24T08:02:06.705Z,1015
2016-08-24T08:03:06.698Z,1015.03
2016-08-24T08:04:06.691Z,1015.01
2016-08-24T08:05:06.686Z,1015
2016-08-24T08:06:06.682Z,1014.97
2016-08-24T08:07:06.673Z,1014.94
2016-08-24T08:08:06.669Z,1014.96
2016-08-24T08:09:06.660Z,1014.93
2016-08-24T08:10:06.656Z,1014.96
2016-08-24T08:11:06.651Z,1014.96
2016-08-24T08:12:06.642Z,1014.97
2016-08-24T08:13:06.640Z,1014.96
2016-08-24T08:14:06.632Z,1015.04
2016-08-24T08:15:06.626Z,1015.04
2016-08-24T08:16:06.726Z,1015.03
2016-08-24T08:17:06.614Z,1015.01
2016-08-24T08:18:06.608Z,1015.03
2016-08-24T08:19:06.604Z,1014.97
2016-08-24T08:20:06.599Z,1015.01
2016-08-24T08:21:06.594Z,1015.04
2016-08-24T08:22:06.593Z,1015.01
2016-08-24T08:23:06.584Z,1014.97
2016-08-24T08:24:06.581Z,1014.96
2016-08-24T08:25:06.577Z,1014.97
2016-08-24T08:26:06.570Z,1015.01
2016-08-24T08:27:06.569Z,1015.01
2016-08-24T08:28:06.562Z,1014.95
2016-08-24T08:29:06.556Z,1014.97
2016-08-24T08:30:06.553Z,1015
2016-08-24T08:31:06.549Z,1014.99
2016-08-24T08:32:06.543Z,1015
2016-08-24T08:33:06.539Z,1015.02
2016-08-24T08:34:06.535Z,1015.01
2016-08-24T08:35:06.529Z,1015.04
2016-08-24T08:36:06.527Z,1015.04
2016-08-24T08:37:06.520Z,1015.04
2016-08-24T08:38:06.518Z,1015.05
2016-08-24T08:39:06.515Z,1015.05
2016-08-24T08:40:06.510Z,1015.03
2016-08-24T08:41:06.505Z,1015.02
2016-08-24T08:42:06.502Z,1015.02
2016-08-24T08:43:06.498Z,1014.98
2016-08-24T08:44:06.495Z,1014.99
2016-08-24T08:45:06.490Z,1014.97
2016-08-24T08:46:06.488Z,1014.99
2016-08-24T08:47:06.483Z,1014.98
2016-08-24T08:48:06.477Z,1014.96
2016-08-24T08:49:06.477Z,1014.93
2016-08-24T08:50:06.470Z,1014.94
2016-08-24T08:51:06.466Z,1014.96
2016-08-24T08:52:06.463Z,1014.99
2016-08-24T08:53:06.457Z,1014.97
2016-08-24T08:54:06.454Z,1014.95
2016-08-24T08:55:06.448Z,1014.95
2016-08-24T08:56:06.445Z,1014.92
2016-08-24T08:57:06.439Z,1014.95
2016-08-24T08:58:06.437Z,1014.91
2016-08-24T08:59:06.432Z,1014.9
2016-08-24T09:00:06.426Z,1014.92
2016-08-24T09:01:06.424Z,1014.85
2016-08-24T09:02:06.418Z,1014.89
2016-08-24T09:03:06.414Z,1014.88
2016-08-24T09:04:06.409Z,1014.89
2016-08-24T09:05:06.405Z,1014.89
2016-08-24T09:06:06.400Z,1014.91
2016-08-24T09:07:06.395Z,1014.93
2016-08-24T09:08:06.392Z,1014.99
2016-08-24T09:09:06.386Z,1014.94
2016-08-24T09:10:06.383Z,1014.92
2016-08-24T09:11:06.378Z,1014.96
2016-08-24T09:12:06.375Z,1014.98
2016-08-24T09:13:06.367Z,1014.95
2016-08-24T09:14:06.366Z,1014.92
2016-08-24T09:15:06.362Z,1014.91
2016-08-24T09:16:06.357Z,1014.92
2016-08-24T09:17:06.351Z,1014.92
2016-08-24T09:18:06.348Z,1014.93
2016-08-24T09:19:06.343Z,1014.93
2016-08-24T09:20:06.339Z,1014.92
2016-08-24T09:21:06.335Z,1014.9
2016-08-24T09:22:06.330Z,1014.88
2016-08-24T09:23:06.327Z,1014.85
2016-08-24T09:24:06.322Z,1014.82
2016-08-24T09:25:06.319Z,1014.78
2016-08-24T09:26:06.314Z,1014.81
2016-08-24T09:27:06.312Z,1014.79
2016-08-24T09:28:06.305Z,1014.77
2016-08-24T09:29:06.301Z,1014.75
2016-08-24T09:30:06.297Z,1014.75
2016-08-24T09:31:06.292Z,1014.73
2016-08-24T09:32:06.300Z,1014.72
2016-08-24T09:33:06.285Z,1014.7
2016-08-24T09:34:06.279Z,1014.76
2016-08-24T09:35:06.274Z,1014.77
2016-08-24T09:36:06.270Z,1014.73
2016-08-24T09:37:06.267Z,1014.71
2016-08-24T09:38:06.261Z,1014.67
2016-08-24T09:39:06.257Z,1014.69
2016-08-24T09:40:06.252Z,1014.67
2016-08-24T09:41:06.247Z,1014.64
2016-08-24T09:42:06.244Z,1014.66
2016-08-24T09:43:06.238Z,1014.66
2016-08-24T09:44:06.234Z,1014.67
2016-08-24T09:45:06.229Z,1014.67
2016-08-24T09:46:06.225Z,1014.65
2016-08-24T09:47:06.221Z,1014.66
2016-08-24T09:48:06.216Z,1014.67
2016-08-24T09:49:06.214Z,1014.65
2016-08-24T09:50:06.208Z,1014.66
2016-08-24T09:51:06.203Z,1014.67
2016-08-24T09:52:06.199Z,1014.7
2016-08-24T09:53:06.193Z,1014.68
2016-08-24T09:54:06.189Z,1014.68
2016-08-24T09:55:06.186Z,1014.72
2016-08-24T09:56:06.181Z,1014.7
2016-08-24T09:57:06.175Z,1014.71
2016-08-24T09:58:06.171Z,1014.71
2016-08-24T09:59:06.166Z,1014.68
2016-08-24T10:00:06.162Z,1014.7
2016-08-24T10:01:06.158Z,1014.69
2016-08-24T10:02:06.152Z,1014.68
2016-08-24T10:03:06.430Z,1014.7
2016-08-24T10:04:06.143Z,1014.7
2016-08-24T10:05:06.142Z,1014.66
2016-08-24T10:06:06.135Z,1014.66
2016-08-24T10:07:06.129Z,1014.68
2016-08-24T10:08:06.126Z,1014.67
2016-08-24T10:09:06.119Z,1014.65
2016-08-24T10:10:06.119Z,1014.62
2016-08-24T10:11:06.112Z,1014.65
2016-08-24T10:12:06.107Z,1014.63
2016-08-24T10:13:06.102Z,1014.63
2016-08-24T10:14:06.099Z,1014.63
2016-08-24T10:15:06.094Z,1014.61
2016-08-24T10:16:06.089Z,1014.6
2016-08-24T10:17:06.083Z,1014.58
2016-08-24T10:18:06.079Z,1014.59
2016-08-24T10:19:06.073Z,1014.6
2016-08-24T10:20:06.070Z,1014.58
2016-08-24T10:21:06.156Z,1014.59
2016-08-24T10:22:06.061Z,1014.61
2016-08-24T10:23:06.055Z,1014.58
2016-08-24T10:24:06.053Z,1014.59
2016-08-24T10:25:06.049Z,1014.64
2016-08-24T10:26:06.046Z,1014.62
2016-08-24T10:27:06.039Z,1014.61
2016-08-24T10:28:06.034Z,1014.59
2016-08-24T10:29:06.029Z,1014.54
2016-08-24T10:30:06.024Z,1014.53
2016-08-24T10:31:06.020Z,1014.54
2016-08-24T10:32:06.017Z,1014.55
2016-08-24T10:33:06.013Z,1014.56
2016-08-24T10:34:06.010Z,1014.55
2016-08-24T10:35:06.003Z,1014.52
2016-08-24T10:36:06.000Z,1014.49
2016-08-24T10:37:05.993Z,1014.48
2016-08-24T10:38:05.990Z,1014.45
2016-08-24T10:39:05.990Z,1014.43
2016-08-24T10:40:05.983Z,1014.42
2016-08-24T10:41:05.977Z,1014.4
2016-08-24T10:42:05.976Z,1014.37
2016-08-24T10:43:05.970Z,1014.4
2016-08-24T10:44:05.966Z,1014.37
2016-08-24T10:45:05.963Z,1014.32
2016-08-24T10:46:05.959Z,1014.25
2016-08-24T10:47:05.955Z,1014.25
2016-08-24T10:48:05.950Z,1014.24
2016-08-24T10:49:05.948Z,1014.31
2016-08-24T10:50:05.944Z,1014.27
2016-08-24T10:51:05.940Z,1014.31
2016-08-24T10:52:05.943Z,1014.34
2016-08-24T10:53:05.936Z,1014.34
2016-08-24T10:54:05.938Z,1014.36
2016-08-24T10:55:05.926Z,1014.36
2016-08-24T10:56:05.924Z,1014.36
2016-08-24T10:57:05.920Z,1014.34
2016-08-24T10:58:05.916Z,1014.3
2016-08-24T10:59:05.917Z,1014.3
2016-08-24T11:00:05.913Z,1014.25
2016-08-24T11:01:05.911Z,1014.26
2016-08-24T11:02:05.911Z,1014.25
2016-08-24T11:03:05.910Z,1014.3
2016-08-24T11:04:05.906Z,1014.23
2016-08-24T11:05:05.901Z,1014.25
2016-08-24T11:06:05.900Z,1014.26
2016-08-24T11:07:05.902Z,1014.26
2016-08-24T11:08:05.899Z,1014.27
2016-08-24T11:09:05.951Z,1014.24
2016-08-24T11:10:05.896Z,1014.24
2016-08-24T11:11:05.899Z,1014.22
2016-08-24T11:12:05.896Z,1014.24
2016-08-24T11:13:05.896Z,1014.21
2016-08-24T11:14:05.895Z,1014.22
2016-08-24T11:15:05.899Z,1014.19
2016-08-24T11:16:05.898Z,1014.21
2016-08-24T11:17:05.899Z,1014.18
2016-08-24T11:18:05.901Z,1014.15
2016-08-24T11:19:05.904Z,1014.15
2016-08-24T11:20:05.905Z,1014.18
2016-08-24T11:21:05.909Z,1014.16
2016-08-24T11:22:05.911Z,1014.19
2016-08-24T11:23:05.915Z,1014.14
2016-08-24T11:24:05.918Z,1014.15
2016-08-24T11:25:05.924Z,1014.15
2016-08-24T11:26:05.931Z,1014.16
2016-08-24T11:27:05.937Z,1014.1
2016-08-24T11:28:05.937Z,1014.09
2016-08-24T11:29:05.938Z,1014.11
2016-08-24T11:30:05.944Z,1014.13
2016-08-24T11:31:05.947Z,1014.12
2016-08-24T11:32:05.950Z,1014.12
2016-08-24T11:33:05.966Z,1014.14
2016-08-24T11:34:05.967Z,1014.1
2016-08-24T11:35:05.971Z,1014.06
2016-08-24T11:36:05.971Z,1014.05
2016-08-24T11:37:05.975Z,1014.09
2016-08-24T11:38:05.983Z,1014.11
2016-08-24T11:39:05.986Z,1014.07
2016-08-24T11:40:05.993Z,1014.09
2016-08-24T11:41:05.995Z,1014.08
2016-08-24T11:42:06.002Z,1014.06
2016-08-24T11:43:06.057Z,1014.05
2016-08-24T11:44:06.014Z,1014.02
2016-08-24T11:45:06.017Z,1014.01
2016-08-24T11:46:06.024Z,1014.02
2016-08-24T11:47:06.032Z,1014.01
2016-08-24T11:48:06.042Z,1013.97
2016-08-24T11:49:06.045Z,1013.98
2016-08-24T11:50:06.050Z,1013.93
2016-08-24T11:51:06.057Z,1013.96
2016-08-24T11:52:06.113Z,1013.96
2016-08-24T11:53:06.070Z,1013.95
2016-08-24T11:54:06.074Z,1013.94
2016-08-24T11:55:06.083Z,1013.94
2016-08-24T11:56:06.089Z,1013.91
2016-08-24T11:57:06.097Z,1013.93
2016-08-24T11:58:06.103Z,1013.94
2016-08-24T11:59:06.112Z,1013.92
2016-08-24T12:00:06.129Z,1013.89
2016-08-24T12:01:06.130Z,1013.89
2016-08-24T12:02:06.133Z,1013.89
2016-08-24T12:03:06.139Z,1013.88
2016-08-24T12:04:06.148Z,1013.85
2016-08-24T12:05:06.156Z,1013.84
2016-08-24T12:06:06.161Z,1013.84
2016-08-24T12:07:06.171Z,1013.84
2016-08-24T12:08:06.176Z,1013.82